Time;durP1;ratioP1;P1;durP2;ratioP2;P2;SDS_P1;SDS_P2;PMS_P1;PMS_P2;Temp;Humidity;BMP_temperature;BMP_pressure;BME280_temperature;BME280_humidity;BME280_pressure;Samples;Min_cycle;Max_cycle;Signal;HPM_P1;HPM_P2
2023/06/20 00:00:47;;;;;;;;;;;;;;;25.89;46.07;100779.02;103753;1287;62344;-81
2023/06/20 00:03:14;;;;;;;;;;;;;;;25.88;46.00;100781.02;103789;1290;62300;-81
2023/06/20 00:05:39;;;;;;;;;;;;;;;25.88;46.18;100784.81;103780;1289;62497;-81
2023/06/20 00:08:05;;;;;;;;;;;;;;;25.88;46.12;100786.50;103875;1285;62191;-81
2023/06/20 00:10:30;;;;;;;;;;;;;;;25.88;46.25;100793.30;103735;1285;62376;-81
2023/06/20 00:12:55;;;;;;;;;;;;;;;25.88;46.22;100793.66;103612;1289;62406;-81
2023/06/20 00:15:25;;;;;;;;;;;;;;;25.88;46.05;100801.04;103664;1286;62238;-81
2023/06/20 00:17:53;;;;;;;;;;;;;;;25.88;46.26;100799.10;103661;1285;64543;-81
2023/06/20 00:20:18;;;;;;;;;;;;;;;25.88;46.33;100803.96;103813;1285;66692;-81
2023/06/20 00:22:44;;;;;;;;;;;;;;;25.88;46.13;100809.00;103633;1285;62156;-81
2023/06/20 00:25:11;;;;;;;;;;;;;;;25.88;46.31;100809.55;103570;1285;62132;-81
2023/06/20 00:27:37;;;;;;;;;;;;;;;25.88;46.31;100807.92;103596;1285;62792;-82
2023/06/20 00:30:02;;;;;;;;;;;;;;;25.87;46.25;100806.89;103675;1285;63493;-81
2023/06/20 00:32:28;;;;;;;;;;;;;;;25.87;46.19;100804.40;103748;1285;62779;-81
2023/06/20 00:34:54;;;;;;;;;;;;;;;25.87;46.42;100801.86;103756;1285;62206;-81
2023/06/20 00:37:20;;;;;;;;;;;;;;;25.87;46.47;100798.84;103731;1284;62092;-81
2023/06/20 00:39:45;;;;;;;;;;;;;;;25.87;46.20;100804.25;103598;1286;62277;-81
2023/06/20 00:42:20;;;;;;;;;;;;;;;25.86;46.12;100799.75;103672;1285;62140;-81
2023/06/20 00:44:46;;;;;;;;;;;;;;;25.87;46.08;100792.73;103625;1286;62197;-81
2023/06/20 00:47:12;;;;;;;;;;;;;;;25.86;46.15;100791.47;103711;1286;62204;-81
2023/06/20 00:49:37;;;;;;;;;;;;;;;25.87;46.32;100790.39;103660;1285;62217;-82
2023/06/20 00:52:03;;;;;;;;;;;;;;;25.86;46.38;100786.27;103701;1290;62247;-81
2023/06/20 00:54:29;;;;;;;;;;;;;;;25.86;46.48;100786.63;103758;1285;62223;-81
2023/06/20 00:56:54;;;;;;;;;;;;;;;25.86;46.31;100784.13;103675;1285;62131;-81
2023/06/20 00:59:20;;;;;;;;;;;;;;;25.86;46.13;100781.59;103680;1287;62175;-81
2023/06/20 01:01:45;;;;;;;;;;;;;;;25.86;46.34;100782.86;103583;1292;63485;-81
2023/06/20 01:04:12;;;;;;;;;;;;;;;25.86;46.38;100788.45;103587;1285;62204;-81
2023/06/20 01:06:47;;;;;;;;;;;;;;;25.86;46.28;100788.47;103692;1285;62127;-81
2023/06/20 01:09:13;;;;;;;;;;;;;;;25.85;46.23;100788.14;103742;1288;62269;-81
2023/06/20 01:11:41;;;;;;;;;;;;;;;25.85;46.24;100780.77;103770;1286;62194;-81
2023/06/20 01:14:36;;;;;;;;;;;;;;;25.85;46.43;100782.75;103831;1285;67599;-81
2023/06/20 01:17:22;;;;;;;;;;;;;;;25.85;46.43;100782.04;103200;1294;62175;-81
2023/06/20 01:20:07;;;;;;;;;;;;;;;25.85;46.32;100778.63;103101;1294;62179;-81
2023/06/20 01:22:33;;;;;;;;;;;;;;;25.85;46.47;100780.62;103136;1296;63689;-81
2023/06/20 01:24:58;;;;;;;;;;;;;;;25.86;46.38;100784.72;103058;1293;62489;-81
2023/06/20 01:27:36;;;;;;;;;;;;;;;25.85;46.40;100787.83;103053;1294;63102;-81
2023/06/20 01:30:10;;;;;;;;;;;;;;;25.85;46.51;100784.38;103026;1293;63408;-81
2023/06/20 01:32:37;;;;;;;;;;;;;;;25.85;46.34;100780.99;103027;1293;63935;-81
2023/06/20 01:35:07;;;;;;;;;;;;;;;25.85;46.44;100782.98;103172;1293;66865;-81
2023/06/20 01:37:34;;;;;;;;;;;;;;;25.85;46.36;100786.98;103099;1291;62121;-81
2023/06/20 01:39:59;;;;;;;;;;;;;;;25.85;46.56;100786.77;103160;1291;62296;-81
2023/06/20 01:42:25;;;;;;;;;;;;;;;25.85;46.49;100792.88;103187;1291;62312;-81
2023/06/20 01:44:51;;;;;;;;;;;;;;;25.84;46.50;100792.92;103200;1296;62303;-81
2023/06/20 01:47:17;;;;;;;;;;;;;;;25.84;46.42;100793.83;103192;1291;62150;-81
2023/06/20 01:49:43;;;;;;;;;;;;;;;25.84;46.47;100792.61;103205;1291;63417;-81
2023/06/20 01:52:10;;;;;;;;;;;;;;;25.84;46.40;100799.84;103151;1291;62249;-81
2023/06/20 01:54:35;;;;;;;;;;;;;;;25.84;46.52;100800.75;103531;1290;64089;-81
2023/06/20 01:57:00;;;;;;;;;;;;;;;25.84;46.19;100803.77;103683;1285;62449;-82
2023/06/20 01:59:26;;;;;;;;;;;;;;;25.83;46.45;100800.59;103767;1285;62109;-81
2023/06/20 02:01:52;;;;;;;;;;;;;;;25.84;46.37;100801.63;103705;1285;62285;-81
2023/06/20 02:04:18;;;;;;;;;;;;;;;25.84;46.43;100805.61;103743;1285;62092;-81
2023/06/20 02:06:44;;;;;;;;;;;;;;;25.83;46.46;100800.27;103690;1290;62220;-81
2023/06/20 02:09:10;;;;;;;;;;;;;;;25.83;46.55;100798.80;103772;1285;62192;-81
2023/06/20 02:11:36;;;;;;;;;;;;;;;25.83;46.39;100802.94;103755;1285;63397;-81
2023/06/20 02:14:04;;;;;;;;;;;;;;;25.84;46.46;100804.73;103659;1286;63417;-81
2023/06/20 02:16:29;;;;;;;;;;;;;;;25.83;46.27;100803.20;103676;1286;62840;-81
2023/06/20 02:18:54;;;;;;;;;;;;;;;25.82;46.40;100805.76;103700;1285;63254;-82
2023/06/20 02:21:23;;;;;;;;;;;;;;;25.82;46.26;100804.48;103680;1285;62389;-81
2023/06/20 02:23:49;;;;;;;;;;;;;;;25.82;46.31;100808.10;103705;1284;62069;-81
2023/06/20 02:26:15;;;;;;;;;;;;;;;25.82;46.49;100809.73;103787;1285;62312;-81
2023/06/20 02:28:48;;;;;;;;;;;;;;;25.82;46.31;100811.36;103616;1290;62089;-81
2023/06/20 02:31:15;;;;;;;;;;;;;;;25.82;46.33;100812.81;103640;1285;61971;-82
2023/06/20 02:33:40;;;;;;;;;;;;;;;25.82;46.19;100809.77;103784;1285;62274;-82
2023/06/20 02:36:06;;;;;;;;;;;;;;;25.82;46.29;100813.36;103721;1286;62736;-82
2023/06/20 02:38:32;;;;;;;;;;;;;;;25.82;46.32;100809.38;103692;1288;62827;-82
2023/06/20 02:40:58;;;;;;;;;;;;;;;25.81;46.42;100808.71;103740;1285;62195;-82
2023/06/20 02:43:23;;;;;;;;;;;;;;;25.81;46.50;100806.23;103759;1284;62263;-82
2023/06/20 02:45:51;;;;;;;;;;;;;;;25.81;46.49;100808.00;103658;1285;62468;-82
2023/06/20 02:48:21;;;;;;;;;;;;;;;25.81;46.48;100813.23;103618;1285;64014;-82
2023/06/20 02:50:55;;;;;;;;;;;;;;;25.81;46.47;100816.11;103594;1285;67678;-82
2023/06/20 02:53:47;;;;;;;;;;;;;;;25.81;46.40;100816.48;103666;1285;62191;-82
2023/06/20 02:56:12;;;;;;;;;;;;;;;25.81;46.43;100816.31;103462;1286;62135;-82
2023/06/20 02:58:39;;;;;;;;;;;;;;;25.81;46.37;100818.98;103610;1285;62207;-82
2023/06/20 03:01:05;;;;;;;;;;;;;;;25.81;46.49;100819.36;103715;1285;62168;-82
2023/06/20 03:03:39;;;;;;;;;;;;;;;25.81;46.41;100817.70;103613;1290;62185;-82
2023/06/20 03:06:06;;;;;;;;;;;;;;;25.81;46.33;100818.45;103700;1287;62734;-81
2023/06/20 03:08:32;;;;;;;;;;;;;;;25.81;46.59;100818.52;103595;1287;72456;-81
2023/06/20 03:10:58;;;;;;;;;;;;;;;25.81;46.57;100820.64;103429;1287;62207;-82
2023/06/20 03:13:23;;;;;;;;;;;;;;;25.81;46.35;100824.45;103614;1287;62546;-82
2023/06/20 03:15:49;;;;;;;;;;;;;;;25.81;46.34;100830.54;103635;1286;63454;-82
2023/06/20 03:18:19;;;;;;;;;;;;;;;25.81;46.32;100838.85;103527;1293;62194;-82
2023/06/20 03:20:44;;;;;;;;;;;;;;;25.81;46.62;100839.40;103251;1288;67388;-82
2023/06/20 03:23:10;;;;;;;;;;;;;;;25.81;46.53;100837.94;103389;1288;62298;-82
2023/06/20 03:25:35;;;;;;;;;;;;;;;25.81;46.52;100840.34;103461;1288;62572;-82
2023/06/20 03:28:01;;;;;;;;;;;;;;;25.81;46.62;100845.17;103475;1288;62277;-81
2023/06/20 03:30:27;;;;;;;;;;;;;;;25.81;46.72;100852.20;103665;1288;62226;-81
2023/06/20 03:32:52;;;;;;;;;;;;;;;25.80;46.59;100855.86;103482;1286;62196;-81
2023/06/20 03:35:17;;;;;;;;;;;;;;;25.80;46.57;100858.94;103458;1289;63184;-81
2023/06/20 03:37:43;;;;;;;;;;;;;;;25.80;46.63;100863.27;103544;1288;60770;-82
2023/06/20 03:40:09;;;;;;;;;;;;;;;25.81;46.67;100867.54;103497;1289;62306;-82
2023/06/20 03:42:34;;;;;;;;;;;;;;;25.81;46.49;100870.59;103597;1287;62236;-82
2023/06/20 03:45:00;;;;;;;;;;;;;;;25.81;46.52;100873.33;103600;1288;62307;-82
2023/06/20 03:47:25;;;;;;;;;;;;;;;25.80;46.69;100869.94;103503;1292;62224;-82
2023/06/20 03:49:51;;;;;;;;;;;;;;;25.81;46.57;100866.14;103367;1288;62192;-82
2023/06/20 03:52:16;;;;;;;;;;;;;;;25.80;46.49;100868.86;103438;1286;63397;-82
2023/06/20 03:54:41;;;;;;;;;;;;;;;25.80;46.51;100866.73;103656;1288;62203;-82
2023/06/20 03:57:07;;;;;;;;;;;;;;;25.80;46.63;100866.73;103194;1287;65756;-82
2023/06/20 03:59:32;;;;;;;;;;;;;;;25.80;46.52;100870.51;103646;1288;62303;-81
2023/06/20 04:01:58;;;;;;;;;;;;;;;25.79;46.65;100873.78;103460;1288;62410;-81
2023/06/20 04:04:25;;;;;;;;;;;;;;;25.79;46.48;100877.95;103586;1292;62153;-82
2023/06/20 04:06:50;;;;;;;;;;;;;;;25.80;46.26;100883.86;103444;1288;62195;-82
2023/06/20 04:09:17;;;;;;;;;;;;;;;25.80;46.55;100883.52;103454;1288;62535;-82
2023/06/20 04:11:43;;;;;;;;;;;;;;;25.80;46.52;100882.78;103505;1288;62285;-83
2023/06/20 04:14:08;;;;;;;;;;;;;;;25.80;46.73;100882.75;103558;1288;63472;-82
2023/06/20 04:16:34;;;;;;;;;;;;;;;25.80;46.49;100886.73;103606;1292;62202;-81
2023/06/20 04:18:59;;;;;;;;;;;;;;;25.80;46.52;100893.94;103450;1289;62317;-81
2023/06/20 04:21:24;;;;;;;;;;;;;;;25.80;46.58;100898.83;103573;1286;63301;-81
2023/06/20 04:23:50;;;;;;;;;;;;;;;25.81;46.77;100904.53;103875;1287;62190;-81
2023/06/20 04:26:16;;;;;;;;;;;;;;;25.81;46.81;100900.37;103658;1288;63360;-81
2023/06/20 04:28:42;;;;;;;;;;;;;;;25.80;46.65;100903.81;103520;1290;62240;-82
2023/06/20 04:31:08;;;;;;;;;;;;;;;25.80;46.69;100904.19;103486;1288;62195;-82
2023/06/20 04:33:33;;;;;;;;;;;;;;;25.80;46.65;100911.22;103591;1287;62252;-82
2023/06/20 04:35:59;;;;;;;;;;;;;;;25.80;46.73;100911.38;103688;1287;62227;-82
2023/06/20 04:38:24;;;;;;;;;;;;;;;25.80;46.60;100910.48;103612;1292;61978;-82
2023/06/20 04:40:50;;;;;;;;;;;;;;;25.80;46.59;100911.56;103821;1290;62309;-82
2023/06/20 04:43:15;;;;;;;;;;;;;;;25.80;46.70;100924.70;104028;1286;62214;-82
2023/06/20 04:45:40;;;;;;;;;;;;;;;25.81;46.68;100931.16;103552;1286;62262;-81
2023/06/20 04:48:06;;;;;;;;;;;;;;;25.81;46.65;100930.45;103711;1289;62202;-81
2023/06/20 04:50:31;;;;;;;;;;;;;;;25.81;46.46;100932.05;103688;1287;62073;-82
2023/06/20 04:52:57;;;;;;;;;;;;;;;25.81;46.62;100932.42;103829;1288;62279;-82
2023/06/20 04:55:23;;;;;;;;;;;;;;;25.81;46.54;100928.30;103875;1287;62269;-82
2023/06/20 04:57:48;;;;;;;;;;;;;;;25.81;46.61;100927.55;103751;1284;62210;-82
2023/06/20 05:00:15;;;;;;;;;;;;;;;25.81;46.61;100927.16;103812;1284;62845;-82
2023/06/20 05:02:42;;;;;;;;;;;;;;;25.81;46.77;100930.99;103684;1290;62118;-81
2023/06/20 05:05:10;;;;;;;;;;;;;;;25.81;46.62;100934.02;103607;1288;64754;-81
2023/06/20 05:07:36;;;;;;;;;;;;;;;25.81;46.62;100933.88;103547;1286;67692;-81
2023/06/20 05:10:02;;;;;;;;;;;;;;;25.81;46.60;100937.63;103796;1285;62176;-81
2023/06/20 05:12:27;;;;;;;;;;;;;;;25.81;46.48;100933.33;103898;1286;62269;-82
2023/06/20 05:14:53;;;;;;;;;;;;;;;25.81;46.67;100933.86;103873;1285;62198;-81
2023/06/20 05:17:18;;;;;;;;;;;;;;;25.81;46.75;100932.75;103996;1285;62225;-82
2023/06/20 05:19:44;;;;;;;;;;;;;;;25.82;46.76;100935.24;103869;1285;68826;-82
2023/06/20 05:22:09;;;;;;;;;;;;;;;25.82;46.54;100934.52;104028;1285;62219;-82
2023/06/20 05:24:34;;;;;;;;;;;;;;;25.82;46.62;100933.61;104062;1285;62245;-81
2023/06/20 05:27:00;;;;;;;;;;;;;;;25.82;46.63;100937.55;103930;1288;63028;-81
2023/06/20 05:29:26;;;;;;;;;;;;;;;25.83;46.76;100932.29;103665;1285;62279;-82
2023/06/20 05:31:52;;;;;;;;;;;;;;;25.83;46.79;100936.02;103873;1285;67595;-82
2023/06/20 05:34:17;;;;;;;;;;;;;;;25.84;46.48;100939.89;104280;1283;62129;-82
2023/06/20 05:36:42;;;;;;;;;;;;;;;25.85;46.65;100941.25;104354;1284;62184;-82
2023/06/20 05:39:09;;;;;;;;;;;;;;;25.86;46.57;100938.61;104043;1285;64508;-81
2023/06/20 05:41:35;;;;;;;;;;;;;;;25.87;46.52;100939.95;104461;1285;62477;-81
2023/06/20 05:44:01;;;;;;;;;;;;;;;25.88;46.59;100940.07;104392;1285;62100;-82
2023/06/20 05:46:27;;;;;;;;;;;;;;;25.88;46.48;100945.45;104309;1286;62118;-82
2023/06/20 05:48:53;;;;;;;;;;;;;;;25.89;46.45;100945.95;104236;1285;62207;-82
2023/06/20 05:51:18;;;;;;;;;;;;;;;25.89;46.48;100945.72;104095;1286;62288;-82
2023/06/20 05:53:44;;;;;;;;;;;;;;;25.89;46.49;100946.45;104129;1290;62214;-82
2023/06/20 05:56:09;;;;;;;;;;;;;;;25.89;46.48;100949.33;103999;1285;62303;-81
2023/06/20 05:58:38;;;;;;;;;;;;;;;25.90;46.44;100950.75;103955;1288;62214;-83
2023/06/20 06:01:04;;;;;;;;;;;;;;;25.90;46.38;100952.73;104110;1286;62000;-82
2023/06/20 06:03:32;;;;;;;;;;;;;;;25.89;46.67;100953.54;104019;1290;62173;-82
2023/06/20 06:05:58;;;;;;;;;;;;;;;25.89;46.59;100951.92;104038;1285;62094;-81
2023/06/20 06:08:23;;;;;;;;;;;;;;;25.89;46.60;100954.96;103814;1286;62309;-81
2023/06/20 06:10:49;;;;;;;;;;;;;;;25.89;46.42;100954.20;104085;1287;62127;-81
2023/06/20 06:13:14;;;;;;;;;;;;;;;25.89;46.31;100955.83;104183;1285;62608;-82
2023/06/20 06:15:41;;;;;;;;;;;;;;;25.90;46.52;100964.24;104268;1285;62248;-81
2023/06/20 06:18:08;;;;;;;;;;;;;;;25.90;46.56;100968.89;104157;1285;62111;-81
2023/06/20 06:20:34;;;;;;;;;;;;;;;25.90;46.34;100972.87;104366;1286;62517;-81
2023/06/20 06:23:00;;;;;;;;;;;;;;;25.91;46.33;100979.84;104555;1288;62104;-81
2023/06/20 06:25:25;;;;;;;;;;;;;;;25.91;46.53;100977.48;104453;1285;62203;-81
2023/06/20 06:27:51;;;;;;;;;;;;;;;25.92;46.48;100978.83;104074;1287;62205;-81
2023/06/20 06:30:16;;;;;;;;;;;;;;;25.92;46.39;100978.63;104393;1284;62177;-81
2023/06/20 06:32:43;;;;;;;;;;;;;;;25.93;46.55;100981.49;104336;1285;62188;-82
2023/06/20 06:35:08;;;;;;;;;;;;;;;25.92;46.28;100983.33;104431;1285;62088;-82
2023/06/20 06:37:34;;;;;;;;;;;;;;;25.94;46.41;100985.19;104344;1285;62193;-82
2023/06/20 06:39:59;;;;;;;;;;;;;;;25.95;46.37;100984.73;104331;1285;62117;-81
2023/06/20 06:42:25;;;;;;;;;;;;;;;25.95;46.35;100982.89;104023;1285;62283;-81
2023/06/20 06:44:51;;;;;;;;;;;;;;;25.97;46.32;100981.73;104030;1286;62233;-82
2023/06/20 06:47:17;;;;;;;;;;;;;;;25.97;46.16;100980.41;104093;1288;62538;-81
2023/06/20 06:49:42;;;;;;;;;;;;;;;25.97;46.27;100983.27;104033;1288;62186;-81
2023/06/20 06:52:09;;;;;;;;;;;;;;;25.98;46.31;100982.86;104142;1285;62132;-82
2023/06/20 06:54:34;;;;;;;;;;;;;;;25.98;46.25;100983.00;104458;1284;62768;-81
2023/06/20 06:57:00;;;;;;;;;;;;;;;25.98;46.32;100982.80;104628;1288;62075;-81
2023/06/20 06:59:25;;;;;;;;;;;;;;;25.99;46.18;100979.11;104490;1286;62232;-82
2023/06/20 07:01:51;;;;;;;;;;;;;;;25.99;46.12;100978.02;104500;1284;62181;-81
2023/06/20 07:04:16;;;;;;;;;;;;;;;26.00;46.20;100976.20;104104;1285;62184;-81
2023/06/20 07:06:42;;;;;;;;;;;;;;;26.01;45.93;100972.86;104147;1285;62113;-81
2023/06/20 07:09:08;;;;;;;;;;;;;;;26.01;46.11;100972.45;104015;1286;63551;-82
2023/06/20 07:11:34;;;;;;;;;;;;;;;26.02;46.14;100973.27;103955;1285;62280;-82
2023/06/20 07:13:59;;;;;;;;;;;;;;;26.03;46.02;100971.80;103681;1286;683373;-82
2023/06/20 07:16:25;;;;;;;;;;;;;;;26.03;46.07;100968.54;103940;1286;62024;-82
2023/06/20 07:18:51;;;;;;;;;;;;;;;26.04;46.08;100971.86;104268;1285;62170;-82
2023/06/20 07:21:17;;;;;;;;;;;;;;;26.05;46.10;100969.80;104099;1285;62368;-82
2023/06/20 07:23:43;;;;;;;;;;;;;;;26.05;46.18;100975.94;103900;1289;62142;-82
2023/06/20 07:26:09;;;;;;;;;;;;;;;26.04;46.01;100970.94;104045;1284;62235;-82
2023/06/20 07:28:35;;;;;;;;;;;;;;;26.05;45.98;100970.15;104031;1286;63565;-82
2023/06/20 07:31:00;;;;;;;;;;;;;;;26.04;45.97;100968.55;104036;1285;62225;-82
2023/06/20 07:33:26;;;;;;;;;;;;;;;26.05;46.05;100968.90;104345;1285;62199;-82
2023/06/20 07:35:52;;;;;;;;;;;;;;;26.05;45.94;100966.03;104328;1285;67459;-82
2023/06/20 07:38:17;;;;;;;;;;;;;;;26.04;45.76;100964.98;104028;1285;62120;-81
2023/06/20 07:40:43;;;;;;;;;;;;;;;26.04;46.07;100968.93;104149;1284;62476;-81
2023/06/20 07:43:08;;;;;;;;;;;;;;;26.04;46.00;100967.36;104167;1285;62216;-82
2023/06/20 07:45:34;;;;;;;;;;;;;;;26.04;45.92;100967.73;104032;1285;62181;-82
2023/06/20 07:47:59;;;;;;;;;;;;;;;26.04;45.84;100963.77;104301;1283;62192;-82
2023/06/20 07:50:25;;;;;;;;;;;;;;;26.03;46.11;100967.42;104376;1285;63489;-81
2023/06/20 07:52:50;;;;;;;;;;;;;;;26.03;45.84;100966.70;104804;1284;62167;-81
2023/06/20 07:55:16;;;;;;;;;;;;;;;26.03;45.99;100965.65;104277;1285;62275;-82
2023/06/20 07:57:42;;;;;;;;;;;;;;;26.03;45.82;100962.95;104099;1285;63303;-81
2023/06/20 08:00:09;;;;;;;;;;;;;;;26.02;46.02;100961.70;104184;1285;66654;-81
2023/06/20 08:02:34;;;;;;;;;;;;;;;26.02;45.94;100955.77;104334;1285;62008;-81
2023/06/20 08:05:00;;;;;;;;;;;;;;;26.02;45.80;100949.34;104016;1285;62111;-82
2023/06/20 08:07:25;;;;;;;;;;;;;;;26.01;45.97;100945.05;103861;1289;63239;-82
2023/06/20 08:09:51;;;;;;;;;;;;;;;26.00;46.05;100940.08;104354;1285;62192;-82
2023/06/20 08:12:16;;;;;;;;;;;;;;;26.00;45.84;100940.48;104766;1285;62128;-82
2023/06/20 08:14:42;;;;;;;;;;;;;;;26.00;45.87;100938.13;104775;1287;61428;-82
2023/06/20 08:17:07;;;;;;;;;;;;;;;26.00;45.93;100942.46;104657;1285;62254;-82
2023/06/20 08:19:33;;;;;;;;;;;;;;;26.00;46.14;100946.77;104864;1285;62199;-82
2023/06/20 08:21:58;;;;;;;;;;;;;;;26.01;45.85;100951.23;104707;1286;62191;-82
2023/06/20 08:24:24;;;;;;;;;;;;;;;26.01;45.84;100952.61;104268;1291;62179;-82
2023/06/20 08:26:49;;;;;;;;;;;;;;;26.02;45.98;100956.69;104604;1285;62121;-82
2023/06/20 08:29:15;;;;;;;;;;;;;;;26.02;45.89;100960.63;104346;1285;62405;-82
2023/06/20 08:31:41;;;;;;;;;;;;;;;26.02;45.80;100964.58;104223;1290;62197;-82
2023/06/20 08:34:07;;;;;;;;;;;;;;;26.03;45.98;100962.42;104230;1288;63442;-82
2023/06/20 08:36:32;;;;;;;;;;;;;;;26.03;45.95;100966.02;104256;1286;62190;-82
2023/06/20 08:38:59;;;;;;;;;;;;;;;26.03;45.75;100966.02;104537;1284;63750;-82
2023/06/20 08:41:31;;;;;;;;;;;;;;;26.03;46.15;100968.38;104529;1285;62118;-82
2023/06/20 08:43:56;;;;;;;;;;;;;;;26.02;45.85;100973.98;104537;1288;65110;-81
2023/06/20 08:46:24;;;;;;;;;;;;;;;26.02;45.85;100973.11;104281;1286;62856;-82
2023/06/20 08:48:50;;;;;;;;;;;;;;;26.02;45.94;100973.82;104290;1285;62202;-82
2023/06/20 08:51:16;;;;;;;;;;;;;;;26.02;45.83;100975.96;104135;1285;62178;-81
2023/06/20 08:53:48;;;;;;;;;;;;;;;26.02;45.80;100976.52;103895;1289;62088;-82
2023/06/20 08:56:14;;;;;;;;;;;;;;;26.03;45.85;100977.56;104037;1283;67668;-81
2023/06/20 08:58:40;;;;;;;;;;;;;;;26.03;45.56;100978.29;104197;1288;62091;-81
2023/06/20 09:01:07;;;;;;;;;;;;;;;26.03;45.92;100973.23;104106;1291;62105;-82
2023/06/20 09:03:33;;;;;;;;;;;;;;;26.03;45.58;100975.36;104386;1288;62107;-82
2023/06/20 09:05:58;;;;;;;;;;;;;;;26.03;45.66;100973.40;104260;1286;63495;-82
2023/06/20 09:08:23;;;;;;;;;;;;;;;26.03;45.37;100968.36;104108;1285;62345;-81
2023/06/20 09:11:03;;;;;;;;;;;;;;;26.03;45.53;100965.80;104288;1284;62175;-82
2023/06/20 09:13:29;;;;;;;;;;;;;;;26.04;45.50;100958.91;104380;1288;64322;-82
2023/06/20 09:16:03;;;;;;;;;;;;;;;26.04;45.38;100952.21;104309;1285;62212;-82
2023/06/20 09:18:29;;;;;;;;;;;;;;;26.04;45.49;100948.25;103976;1287;67456;-82
2023/06/20 09:20:57;;;;;;;;;;;;;;;26.04;45.48;100946.23;104363;1284;62190;-81
2023/06/20 09:23:27;;;;;;;;;;;;;;;26.05;45.30;100947.45;104224;1285;62168;-81
2023/06/20 09:25:52;;;;;;;;;;;;;;;26.05;45.42;100940.53;104660;1286;64905;-81
2023/06/20 09:28:18;;;;;;;;;;;;;;;26.05;45.34;100939.48;104416;1285;62200;-81
2023/06/20 09:30:47;;;;;;;;;;;;;;;26.05;45.49;100937.66;104344;1285;62259;-81
2023/06/20 09:33:13;;;;;;;;;;;;;;;26.06;45.25;100940.83;104134;1284;62426;-81
2023/06/20 09:35:38;;;;;;;;;;;;;;;26.07;45.36;100940.61;104120;1291;62200;-81
2023/06/20 09:38:05;;;;;;;;;;;;;;;26.06;45.42;100936.88;104226;1285;62091;-81
2023/06/20 09:40:31;;;;;;;;;;;;;;;26.06;45.22;100935.42;104037;1284;62062;-81
2023/06/20 09:42:56;;;;;;;;;;;;;;;26.06;45.51;100933.60;104266;1285;62555;-81
2023/06/20 09:45:22;;;;;;;;;;;;;;;26.07;45.51;100934.46;104713;1288;62134;-81
2023/06/20 09:47:47;;;;;;;;;;;;;;;26.07;45.34;100932.86;104446;1289;62269;-81
2023/06/20 09:50:16;;;;;;;;;;;;;;;26.07;45.10;100937.34;104303;1285;62416;-82
2023/06/20 09:52:53;;;;;;;;;;;;;;;26.07;45.32;100936.98;105647;1285;59965;-82
2023/06/20 09:55:19;;;;;;;;;;;;;;;26.07;45.24;100932.59;104424;1283;62178;-82
2023/06/20 09:57:50;;;;;;;;;;;;;;;26.07;45.08;100933.14;104256;1285;62176;-81
2023/06/20 10:00:17;;;;;;;;;;;;;;;26.07;45.15;100933.86;104697;1289;67587;-81
2023/06/20 10:02:46;;;;;;;;;;;;;;;26.08;45.15;100933.26;104516;1288;62133;-81
2023/06/20 10:05:12;;;;;;;;;;;;;;;26.08;45.06;100934.88;104227;1285;62784;-81
2023/06/20 10:07:38;;;;;;;;;;;;;;;26.08;45.20;100939.38;104145;1285;63963;-81
2023/06/20 10:10:03;;;;;;;;;;;;;;;26.08;45.12;100939.89;104043;1285;62203;-81
2023/06/20 10:12:29;;;;;;;;;;;;;;;26.08;44.86;100941.90;103933;1286;62798;-82
2023/06/20 10:14:55;;;;;;;;;;;;;;;26.08;44.98;100935.99;104073;1285;62178;-81
2023/06/20 10:17:31;;;;;;;;;;;;;;;26.08;44.99;100935.25;103984;1286;62245;-81
2023/06/20 10:19:56;;;;;;;;;;;;;;;26.08;44.82;100935.98;104305;1288;76193;-81
2023/06/20 10:22:31;;;;;;;;;;;;;;;26.08;44.88;100933.79;104263;1286;62140;-82
2023/06/20 10:24:57;;;;;;;;;;;;;;;26.08;44.93;100935.25;104353;1285;62580;-81
2023/06/20 10:27:22;;;;;;;;;;;;;;;26.08;44.68;100940.29;104303;1291;62276;-82
2023/06/20 10:29:48;;;;;;;;;;;;;;;26.08;44.72;100932.73;104051;1291;62715;-81
2023/06/20 10:32:14;;;;;;;;;;;;;;;26.08;44.91;100935.42;103988;1286;62043;-81
2023/06/20 10:34:40;;;;;;;;;;;;;;;26.08;44.86;100935.98;104341;1290;62513;-81
2023/06/20 10:37:24;;;;;;;;;;;;;;;26.08;44.68;100937.61;104257;1288;62200;-81
2023/06/20 10:39:53;;;;;;;;;;;;;;;26.08;44.66;100944.08;104228;1285;63847;-81
2023/06/20 10:42:40;;;;;;;;;;;;;;;26.08;44.46;100945.14;104195;1285;66676;-81
2023/06/20 10:45:19;;;;;;;;;;;;;;;26.08;44.67;100945.52;104115;1286;61956;-81
2023/06/20 10:47:45;;;;;;;;;;;;;;;26.08;44.60;100939.40;104083;1285;62100;-81
2023/06/20 10:50:11;;;;;;;;;;;;;;;26.08;44.47;100937.58;104247;1288;63207;-82
2023/06/20 10:52:37;;;;;;;;;;;;;;;26.08;44.51;100931.60;104066;1288;62179;-81
2023/06/20 10:55:02;;;;;;;;;;;;;;;26.08;44.37;100934.33;103904;1285;62220;-81
2023/06/20 10:57:31;;;;;;;;;;;;;;;26.08;44.41;100931.66;104240;1285;62141;-82
2023/06/20 10:59:56;;;;;;;;;;;;;;;26.08;44.53;100935.08;104521;1285;62286;-82
2023/06/20 11:02:21;;;;;;;;;;;;;;;26.07;44.61;100929.38;104472;1286;62254;-81
2023/06/20 11:04:48;;;;;;;;;;;;;;;26.07;44.55;100935.12;104163;1291;62239;-82
2023/06/20 11:07:13;;;;;;;;;;;;;;;26.08;44.56;100937.77;104326;1285;62590;-82
2023/06/20 11:09:39;;;;;;;;;;;;;;;26.08;44.53;100932.86;104292;1290;62204;-82
2023/06/20 11:12:08;;;;;;;;;;;;;;;26.08;44.45;100924.02;104172;1285;63927;-82
2023/06/20 11:14:33;;;;;;;;;;;;;;;26.08;44.56;100917.70;104018;1284;67719;-81
2023/06/20 11:16:59;;;;;;;;;;;;;;;26.08;44.52;100911.77;104156;1288;62720;-81
2023/06/20 11:19:27;;;;;;;;;;;;;;;26.09;44.50;100911.52;104121;1285;62197;-82
2023/06/20 11:21:53;;;;;;;;;;;;;;;26.08;44.64;100909.40;103985;1291;62194;-81
2023/06/20 11:24:19;;;;;;;;;;;;;;;26.09;44.41;100912.64;103902;1285;62853;-81
2023/06/20 11:26:44;;;;;;;;;;;;;;;26.09;44.44;100914.95;103719;1285;62192;-81
2023/06/20 11:29:10;;;;;;;;;;;;;;;26.08;44.19;100913.38;103807;1285;62139;-81
2023/06/20 11:31:35;;;;;;;;;;;;;;;26.08;44.17;100908.52;103949;1285;63482;-81
2023/06/20 11:34:04;;;;;;;;;;;;;;;26.08;44.27;100909.40;103806;1288;63607;-82
2023/06/20 11:36:33;;;;;;;;;;;;;;;26.08;44.18;100904.92;103941;1290;67391;-81
2023/06/20 11:39:08;;;;;;;;;;;;;;;26.08;44.36;100906.38;103987;1285;62198;-81
2023/06/20 11:41:34;;;;;;;;;;;;;;;26.08;44.29;100902.45;103853;1288;62246;-81
2023/06/20 11:44:00;;;;;;;;;;;;;;;26.08;44.22;100897.00;103768;1291;62199;-81
2023/06/20 11:46:26;;;;;;;;;;;;;;;26.08;44.37;100897.91;103902;1285;62225;-81
2023/06/20 11:48:52;;;;;;;;;;;;;;;26.08;44.12;100898.09;104105;1291;62313;-81
2023/06/20 11:51:21;;;;;;;;;;;;;;;26.08;44.09;100891.24;104075;1285;62216;-81
2023/06/20 11:53:47;;;;;;;;;;;;;;;26.08;44.34;100880.02;103925;1284;62223;-81
2023/06/20 11:56:15;;;;;;;;;;;;;;;26.08;44.19;100874.81;103896;1286;62201;-82
2023/06/20 11:58:41;;;;;;;;;;;;;;;26.08;44.21;100875.73;104173;1288;62127;-81
2023/06/20 12:01:09;;;;;;;;;;;;;;;26.08;44.13;100867.92;104137;1286;62217;-82
2023/06/20 12:03:39;;;;;;;;;;;;;;;26.09;44.29;100865.54;103995;1284;64735;-82
2023/06/20 12:06:26;;;;;;;;;;;;;;;26.09;44.24;100861.16;104026;1284;67411;-81
2023/06/20 12:08:53;;;;;;;;;;;;;;;26.09;44.32;100859.05;103981;1285;62088;-81
2023/06/20 12:11:19;;;;;;;;;;;;;;;26.09;44.25;100864.79;103985;1284;62246;-81
2023/06/20 12:13:44;;;;;;;;;;;;;;;26.10;44.36;100866.00;103656;1287;62203;-81
2023/06/20 12:16:10;;;;;;;;;;;;;;;26.10;44.15;100872.10;103657;1291;62181;-81
2023/06/20 12:18:36;;;;;;;;;;;;;;;26.10;44.32;100870.80;103733;1290;63204;-81
2023/06/20 12:21:01;;;;;;;;;;;;;;;26.11;44.17;100868.78;103781;1285;62418;-81
2023/06/20 12:23:27;;;;;;;;;;;;;;;26.11;44.16;100865.75;103725;1290;63068;-81